Terminal Aerodrome Forecast
Issued by NWS Albany, NY

Home | Current Version | Previous Version | Text Only | Print | Product List | Glossary On
Versions: 1 2 3 4 5 6 7 8 9 10 11 12 13 14 15 16 17 18 19 20
000
FTUS41 KALY 022333
TAFPOU
TAF
KPOU 022333Z 0300/0324 00000KT P6SM SKC
     FM030800 00000KT 4SM BR SKC
     FM031300 33003KT P6SM FEW050
     FM032200 33005KT P6SM VCSH BKN050=

USA.gov is the U.S. government's official web portal to all federal, state and local government web resources and services.